createdAt,value
2022-12-11T00:00:13.388Z,89488.91
2022-12-11T00:02:40.400Z,89484.84
2022-12-11T00:05:08.078Z,89492.16
2022-12-11T00:07:35.428Z,89493.03
2022-12-11T00:10:02.382Z,89489.34
2022-12-11T00:12:30.834Z,89498.59
2022-12-11T00:14:57.875Z,89492.94
2022-12-11T00:17:24.857Z,89491.59
2022-12-11T00:19:51.878Z,89496.44
2022-12-11T00:22:18.863Z,89492.00
2022-12-11T00:24:45.777Z,89489.72
2022-12-11T00:27:12.649Z,89491.84
2022-12-11T00:29:39.616Z,89491.22
2022-12-11T00:32:06.751Z,89493.16
2022-12-11T00:34:33.896Z,89487.22
2022-12-11T00:37:01.217Z,89492.56
2022-12-11T00:39:28.070Z,89503.38
2022-12-11T00:41:54.999Z,89497.22
2022-12-11T00:44:22.077Z,89504.97
2022-12-11T00:46:48.886Z,89495.34
2022-12-11T00:49:15.984Z,89484.69
2022-12-11T00:51:42.807Z,89488.66
2022-12-11T00:54:09.860Z,89483.03
2022-12-11T00:56:36.810Z,89477.63
2022-12-11T00:59:03.853Z,89468.94
2022-12-11T01:01:30.866Z,89483.91
2022-12-11T01:03:58.021Z,89484.50
2022-12-11T01:06:26.754Z,89476.56
2022-12-11T01:08:54.484Z,89473.03
2022-12-11T01:11:21.254Z,89466.53
2022-12-11T01:13:48.292Z,89447.97
2022-12-11T01:16:16.229Z,89448.69
2022-12-11T01:18:43.203Z,89450.03
2022-12-11T01:21:12.983Z,89459.75
2022-12-11T01:23:40.812Z,89456.66
2022-12-11T01:26:15.412Z,89456.66
2022-12-11T01:28:43.155Z,89465.59
2022-12-11T01:31:12.211Z,89452.81
2022-12-11T01:33:39.432Z,89461.03
2022-12-11T01:36:11.704Z,89450.56
2022-12-11T01:38:38.570Z,89454.03
2022-12-11T01:41:05.932Z,89452.16
2022-12-11T01:43:32.834Z,89449.66
2022-12-11T01:45:59.732Z,89449.34
2022-12-11T01:48:30.378Z,89445.59
2022-12-11T01:51:01.655Z,89446.31
2022-12-11T01:53:40.551Z,89443.63
2022-12-11T01:56:09.274Z,89445.72
2022-12-11T01:58:42.222Z,89445.91
2022-12-11T02:01:15.415Z,89440.13
2022-12-11T02:03:42.261Z,89429.16
2022-12-11T02:06:36.849Z,89434.47
2022-12-11T02:09:07.694Z,89441.94
2022-12-11T02:11:46.516Z,89447.97
2022-12-11T02:14:19.032Z,89431.25
2022-12-11T02:17:00.088Z,89426.06
2022-12-11T02:19:59.117Z,89432.69
2022-12-11T02:22:48.008Z,89422.41
2022-12-11T02:25:23.707Z,89416.13
2022-12-11T02:28:15.638Z,89413.34
2022-12-11T02:30:46.682Z,89418.78
2022-12-11T02:33:15.654Z,89417.72
2022-12-11T02:35:45.847Z,89412.16
2022-12-11T02:38:25.826Z,89405.91
2022-12-11T02:40:54.922Z,89417.78
2022-12-11T02:43:24.122Z,89419.44
2022-12-11T02:45:53.155Z,89410.59
2022-12-11T02:48:23.102Z,89411.75
2022-12-11T02:50:55.699Z,89420.81
2022-12-11T02:53:26.561Z,89416.13
2022-12-11T02:56:02.391Z,89413.69
2022-12-11T02:58:33.897Z,89428.84
2022-12-11T03:01:00.939Z,89443.53
2022-12-11T03:03:30.387Z,89424.69
2022-12-11T03:05:57.480Z,89428.38
2022-12-11T03:08:24.551Z,89414.88
2022-12-11T03:10:51.357Z,89417.59
2022-12-11T03:13:21.680Z,89411.53
2022-12-11T03:16:10.054Z,89408.09
2022-12-11T03:18:41.199Z,89410.13
2022-12-11T03:21:55.704Z,89417.38
2022-12-11T03:24:55.272Z,89425.22
2022-12-11T03:27:39.797Z,89432.44
2022-12-11T03:30:12.836Z,89439.78
2022-12-11T03:32:47.914Z,89412.03
2022-12-11T03:35:32.311Z,89426.59
2022-12-11T03:38:04.437Z,89415.69
2022-12-11T03:40:34.582Z,89401.16
2022-12-11T03:43:02.530Z,89402.19
2022-12-11T03:45:30.699Z,89398.34
2022-12-11T03:48:01.715Z,89399.50
2022-12-11T03:50:32.372Z,89405.28
2022-12-11T03:53:01.850Z,89399.00
2022-12-11T03:55:30.750Z,89406.66
2022-12-11T03:57:57.645Z,89416.34
2022-12-11T04:00:24.817Z,89413.16
2022-12-11T04:02:51.798Z,89411.41
2022-12-11T04:05:18.700Z,89414.31
2022-12-11T04:07:45.702Z,89408.13
2022-12-11T04:10:12.594Z,89418.41
2022-12-11T04:12:39.638Z,89425.38
2022-12-11T04:15:06.864Z,89422.53
2022-12-11T04:17:36.778Z,89424.19
2022-12-11T04:20:05.355Z,89410.66
2022-12-11T04:22:32.199Z,89422.50
2022-12-11T04:24:59.350Z,89415.06
2022-12-11T04:27:26.564Z,89419.63
2022-12-11T04:29:53.519Z,89413.31
2022-12-11T04:32:20.356Z,89406.00
2022-12-11T04:34:47.286Z,89406.00
2022-12-11T04:37:14.176Z,89419.22
2022-12-11T04:39:41.031Z,89416.84
2022-12-11T04:42:07.996Z,89412.44
2022-12-11T04:44:34.809Z,89420.19
2022-12-11T04:47:01.744Z,89409.38
2022-12-11T04:49:28.556Z,89417.00
2022-12-11T04:51:55.557Z,89413.75
2022-12-11T04:54:22.507Z,89414.31
2022-12-11T04:56:49.702Z,89412.78
2022-12-11T04:59:16.572Z,89414.88
2022-12-11T05:01:43.510Z,89417.53
2022-12-11T05:04:10.367Z,89418.16
2022-12-11T05:06:37.646Z,89428.06
2022-12-11T05:09:04.623Z,89428.31
2022-12-11T05:11:31.594Z,89426.81
2022-12-11T05:13:58.508Z,89428.72
2022-12-11T05:16:25.470Z,89427.84
2022-12-11T05:18:52.303Z,89427.72
2022-12-11T05:21:19.211Z,89427.91
2022-12-11T05:23:46.069Z,89426.06
2022-12-11T05:26:16.383Z,89431.75
2022-12-11T05:28:44.469Z,89435.66
2022-12-11T05:31:41.371Z,89435.03
2022-12-11T05:34:08.197Z,89429.31
2022-12-11T05:36:35.202Z,89427.69
2022-12-11T05:39:05.427Z,89431.63
2022-12-11T05:41:33.054Z,89434.53
2022-12-11T05:44:00.779Z,89435.56
2022-12-11T05:46:30.380Z,89425.53
2022-12-11T05:49:00.982Z,89417.22
2022-12-11T05:51:29.042Z,89424.19
2022-12-11T05:53:57.290Z,89427.75
2022-12-11T05:56:29.166Z,89433.94
2022-12-11T05:58:57.243Z,89427.50
2022-12-11T06:01:33.570Z,89437.06
2022-12-11T06:04:01.368Z,89439.94
2022-12-11T06:06:28.967Z,89432.19
2022-12-11T06:08:57.638Z,89439.97
2022-12-11T06:11:27.024Z,89423.41
2022-12-11T06:13:54.147Z,89424.97
2022-12-11T06:16:22.354Z,89429.78
2022-12-11T06:18:49.702Z,89436.56
2022-12-11T06:21:30.180Z,89428.88
2022-12-11T06:24:01.336Z,89424.88
2022-12-11T06:26:28.763Z,89440.28
2022-12-11T06:28:55.814Z,89430.19
2022-12-11T06:31:23.182Z,89434.06
2022-12-11T06:33:50.728Z,89429.84
2022-12-11T06:36:20.303Z,89428.06
2022-12-11T06:38:47.607Z,89430.78
2022-12-11T06:41:15.758Z,89445.81
2022-12-11T06:43:43.209Z,89447.97
2022-12-11T06:46:15.572Z,89438.53
2022-12-11T06:48:47.295Z,89436.34
2022-12-11T06:51:20.031Z,89442.31
2022-12-11T06:53:52.211Z,89444.28
2022-12-11T06:56:22.452Z,89441.69
2022-12-11T06:58:49.680Z,89444.97
2022-12-11T07:01:23.049Z,89444.91
2022-12-11T07:03:52.461Z,89434.97
2022-12-11T07:06:19.773Z,89411.38
2022-12-11T07:08:46.681Z,89435.22
2022-12-11T07:11:16.169Z,89431.66
2022-12-11T07:13:43.660Z,89452.84
2022-12-11T07:16:13.501Z,89458.47
2022-12-11T07:18:42.325Z,89453.63
2022-12-11T07:21:11.930Z,89460.78
2022-12-11T07:23:39.011Z,89454.31
2022-12-11T07:26:07.820Z,89460.44
2022-12-11T07:28:35.040Z,89455.66
2022-12-11T07:31:07.419Z,89466.91
2022-12-11T07:33:34.574Z,89468.88
2022-12-11T07:36:06.230Z,89465.41
2022-12-11T07:38:33.374Z,89466.34
2022-12-11T07:41:05.004Z,89460.97
2022-12-11T07:43:33.494Z,89469.66
2022-12-11T07:46:07.127Z,89463.66
2022-12-11T07:48:38.299Z,89469.03
2022-12-11T07:51:17.027Z,89465.06
2022-12-11T07:54:04.755Z,89475.91
2022-12-11T07:56:31.905Z,89471.03
2022-12-11T07:59:06.623Z,89469.03
2022-12-11T08:01:36.009Z,89468.38
2022-12-11T08:04:05.188Z,89469.41
2022-12-11T08:06:35.805Z,89473.75
2022-12-11T08:09:05.945Z,89471.00
2022-12-11T08:11:32.988Z,89463.44
2022-12-11T08:14:00.590Z,89463.31
2022-12-11T08:16:28.195Z,89457.19
2022-12-11T08:18:55.455Z,89456.22
2022-12-11T08:21:28.259Z,89453.03
2022-12-11T08:23:55.572Z,89442.88
2022-12-11T08:26:25.768Z,89460.97
2022-12-11T08:28:53.682Z,89452.28
2022-12-11T08:31:20.904Z,89449.75
2022-12-11T08:33:48.835Z,89449.66
2022-12-11T08:36:19.105Z,89444.06
2022-12-11T08:38:46.323Z,89449.53
2022-12-11T08:41:16.293Z,89450.41
2022-12-11T08:43:43.867Z,89446.94
2022-12-11T08:46:12.262Z,89453.00
2022-12-11T08:48:40.831Z,89437.09
2022-12-11T08:51:12.477Z,89448.63
2022-12-11T08:53:39.748Z,89437.22
2022-12-11T08:56:10.402Z,89433.72
2022-12-11T08:58:37.897Z,89435.03
2022-12-11T09:01:10.213Z,89432.44
2022-12-11T09:03:39.229Z,89432.16
2022-12-11T09:06:12.295Z,89443.41
2022-12-11T09:08:40.034Z,89432.44
2022-12-11T09:11:20.236Z,89421.19
2022-12-11T09:13:47.132Z,89414.22
2022-12-11T09:16:18.324Z,89404.63
2022-12-11T09:18:47.767Z,89402.78
2022-12-11T09:21:17.323Z,89400.59
2022-12-11T09:23:44.413Z,89391.91
2022-12-11T09:26:14.585Z,89389.72
2022-12-11T09:28:46.602Z,89396.31
2022-12-11T09:31:23.450Z,89381.03
2022-12-11T09:33:58.823Z,89390.50
2022-12-11T09:36:25.885Z,89387.63
2022-12-11T09:38:52.950Z,89381.97
2022-12-11T09:41:22.721Z,89374.59
2022-12-11T09:44:13.468Z,89373.69
2022-12-11T09:46:44.447Z,89367.28
2022-12-11T09:49:32.312Z,89356.91
2022-12-11T09:52:07.308Z,89359.31
2022-12-11T09:54:34.391Z,89354.66
2022-12-11T09:57:03.917Z,89351.31
2022-12-11T09:59:30.967Z,89347.28
2022-12-11T10:02:18.956Z,89338.59
2022-12-11T10:05:08.476Z,89328.34
2022-12-11T10:07:52.036Z,89328.81
2022-12-11T10:10:39.628Z,89328.03
2022-12-11T10:13:34.773Z,89314.47
2022-12-11T10:16:19.588Z,89315.84
2022-12-11T10:18:47.827Z,89317.69
2022-12-11T10:21:24.994Z,89317.50
2022-12-11T10:24:00.730Z,89309.81
2022-12-11T10:26:29.656Z,89304.63
2022-12-11T10:29:01.136Z,89310.28
2022-12-11T10:31:54.738Z,89303.88
2022-12-11T10:34:26.535Z,89296.09
2022-12-11T10:37:00.259Z,89293.34
2022-12-11T10:39:28.099Z,89295.81
2022-12-11T10:41:57.080Z,89306.41
2022-12-11T10:47:42.347Z,89289.97
2022-12-11T10:50:25.069Z,89292.25
2022-12-11T10:52:53.360Z,89285.09
2022-12-11T10:55:25.807Z,89297.31
2022-12-11T10:58:05.691Z,89284.94
2022-12-11T11:00:42.290Z,89285.13
2022-12-11T11:03:25.052Z,89276.47
2022-12-11T11:06:14.383Z,89280.16
2022-12-11T11:08:47.014Z,89276.19
2022-12-11T11:11:19.583Z,89274.44
2022-12-11T11:13:47.050Z,89267.25
2022-12-11T11:16:17.955Z,89262.81
2022-12-11T11:18:53.115Z,89257.09
2022-12-11T11:21:24.255Z,89253.47
2022-12-11T11:23:53.906Z,89250.22
2022-12-11T11:26:22.613Z,89238.59
2022-12-11T11:28:53.019Z,89241.78
2022-12-11T11:31:22.968Z,89248.75
2022-12-11T11:33:57.102Z,89245.56
2022-12-11T11:36:29.780Z,89243.63
2022-12-11T11:39:18.103Z,89241.56
2022-12-11T11:42:01.055Z,89239.00
2022-12-11T11:44:37.164Z,89237.31
2022-12-11T11:47:20.025Z,89235.53
2022-12-11T11:50:09.023Z,89236.25
2022-12-11T11:52:57.854Z,89235.63
2022-12-11T11:55:54.474Z,89236.69
2022-12-11T11:58:34.042Z,89240.31
2022-12-11T12:01:01.305Z,89246.69
2022-12-11T12:03:29.769Z,89226.47
2022-12-11T12:06:36.007Z,89223.34
2022-12-11T12:09:41.803Z,89226.47
2022-12-11T12:12:34.232Z,89220.94
2022-12-11T12:15:33.934Z,89226.59
2022-12-11T12:18:24.515Z,89223.09
2022-12-11T12:21:06.228Z,89221.66
2022-12-11T12:23:49.873Z,89214.53
2022-12-11T12:26:25.639Z,89223.25
2022-12-11T12:29:21.659Z,89221.28
2022-12-11T12:32:14.743Z,89223.84
2022-12-11T12:35:00.504Z,89216.97
2022-12-11T12:37:30.373Z,89213.47
2022-12-11T12:40:03.754Z,89213.06
2022-12-11T12:43:06.075Z,89221.81
2022-12-11T12:45:53.176Z,89228.84
2022-12-11T12:48:23.129Z,89237.53
2022-12-11T12:50:51.583Z,89227.44
2022-12-11T12:53:22.935Z,89216.91
2022-12-11T12:55:51.307Z,89222.78
2022-12-11T13:12:16.010Z,89211.88
2022-12-11T13:14:43.229Z,89222.47
2022-12-11T13:17:22.102Z,89217.19
2022-12-11T13:19:51.617Z,89215.34
2022-12-11T13:22:24.148Z,89204.41
2022-12-11T13:24:54.004Z,89215.88
2022-12-11T13:27:36.404Z,89211.88
2022-12-11T13:30:24.097Z,89210.94
2022-12-11T13:33:16.163Z,89213.25
2022-12-11T13:35:43.514Z,89212.75
2022-12-11T13:38:21.431Z,89216.81
2022-12-11T13:40:54.835Z,89199.19
2022-12-11T13:43:28.921Z,89195.84
2022-12-11T13:46:03.768Z,89209.25
2022-12-11T13:48:48.005Z,89203.56
2022-12-11T13:51:21.218Z,89205.03
2022-12-11T13:53:48.675Z,89195.13
2022-12-11T13:56:24.401Z,89195.75
2022-12-11T13:58:51.466Z,89199.69
2022-12-11T14:01:25.169Z,89199.78
2022-12-11T14:04:09.388Z,89207.53
2022-12-11T14:06:39.338Z,89212.25
2022-12-11T14:09:08.334Z,89203.31
2022-12-11T14:11:39.306Z,89207.69
2022-12-11T14:14:18.533Z,89204.53
2022-12-11T14:16:48.800Z,89195.81
2022-12-11T14:19:19.766Z,89200.44
2022-12-11T14:22:02.021Z,89206.34
2022-12-11T14:24:29.936Z,89194.84
2022-12-11T14:26:58.175Z,89200.97
2022-12-11T14:29:35.321Z,89212.38
2022-12-11T14:32:07.567Z,89192.19
2022-12-11T14:34:39.809Z,89187.03
2022-12-11T14:37:08.534Z,89198.31
2022-12-11T14:39:44.623Z,89193.19
2022-12-11T14:42:18.056Z,89194.63
2022-12-11T14:45:08.228Z,89191.28
2022-12-11T14:47:41.599Z,89195.25
2022-12-11T14:50:22.811Z,89200.97
2022-12-11T14:52:55.670Z,89200.69
2022-12-11T14:55:30.161Z,89203.09
2022-12-11T14:58:04.944Z,89201.16
2022-12-11T15:00:37.251Z,89193.78
2022-12-11T15:03:24.046Z,89196.28
2022-12-11T15:05:53.306Z,89202.16
2022-12-11T15:08:26.748Z,89197.13
2022-12-11T15:11:15.699Z,89195.94
2022-12-11T15:13:57.240Z,89204.28
2022-12-11T15:16:26.921Z,89196.06
2022-12-11T15:18:56.134Z,89197.06
2022-12-11T15:21:35.635Z,89196.00
2022-12-11T15:24:05.598Z,89193.88
2022-12-11T15:26:44.400Z,89197.16
2022-12-11T15:29:31.361Z,89200.00
2022-12-11T15:32:13.644Z,89207.06
2022-12-11T15:34:43.320Z,89200.41
2022-12-11T15:37:29.597Z,89198.31
2022-12-11T15:39:58.908Z,89190.03
2022-12-11T15:42:33.372Z,89191.16
2022-12-11T15:45:01.232Z,89189.91
2022-12-11T15:47:30.637Z,89188.53
2022-12-11T15:50:01.228Z,89187.53
2022-12-11T15:52:28.472Z,89179.19
2022-12-11T15:54:55.229Z,89181.78
2022-12-11T15:57:24.946Z,89181.72
2022-12-11T15:59:55.581Z,89178.78
2022-12-11T16:02:23.081Z,89176.06
2022-12-11T16:04:50.486Z,89177.75
2022-12-11T16:07:23.867Z,89184.88
2022-12-11T16:09:51.673Z,89189.25
2022-12-11T16:12:19.120Z,89193.09
2022-12-11T16:14:46.994Z,89178.50
2022-12-11T16:17:15.796Z,89182.22
2022-12-11T16:19:43.730Z,89174.47
2022-12-11T16:22:12.642Z,89170.91
2022-12-11T16:24:40.822Z,89167.25
2022-12-11T16:27:09.068Z,89168.13
2022-12-11T16:29:41.636Z,89168.72
2022-12-11T16:32:09.317Z,89155.28
2022-12-11T16:34:37.139Z,89164.84
2022-12-11T16:37:05.504Z,89172.50
2022-12-11T16:39:33.100Z,89167.59
2022-12-11T16:42:00.285Z,89166.38
2022-12-11T16:44:27.635Z,89165.78
2022-12-11T16:46:54.994Z,89171.53
2022-12-11T16:49:22.766Z,89165.25
2022-12-11T16:51:50.713Z,89164.53
2022-12-11T16:54:18.250Z,89155.25
2022-12-11T16:56:46.265Z,89154.47
2022-12-11T16:59:13.350Z,89159.44
2022-12-11T17:01:40.400Z,89156.53
2022-12-11T17:04:07.666Z,89151.72
2022-12-11T17:06:34.865Z,89156.97
2022-12-11T17:09:02.325Z,89149.66
2022-12-11T17:11:29.451Z,89155.25
2022-12-11T17:13:58.228Z,89154.00
2022-12-11T17:16:27.210Z,89156.69
2022-12-11T17:18:54.453Z,89154.00
2022-12-11T17:21:22.875Z,89146.94
2022-12-11T17:23:50.860Z,89146.22
2022-12-11T17:26:18.412Z,89151.78
2022-12-11T17:28:45.833Z,89152.00
2022-12-11T17:31:18.090Z,89148.63
2022-12-11T17:33:47.078Z,89143.91
2022-12-11T17:36:20.468Z,89142.53
2022-12-11T17:38:48.691Z,89137.69
2022-12-11T17:41:20.695Z,89143.66
2022-12-11T17:43:54.167Z,89148.53
2022-12-11T17:46:21.470Z,89142.28
2022-12-11T17:48:49.767Z,89139.56
2022-12-11T17:51:18.480Z,89134.59
2022-12-11T17:53:45.572Z,89129.53
2022-12-11T17:56:12.820Z,89131.69
2022-12-11T17:58:40.057Z,89132.78
2022-12-11T18:01:09.658Z,89136.09
2022-12-11T18:03:37.816Z,89132.06
2022-12-11T18:06:10.610Z,89123.06
2022-12-11T18:08:38.732Z,89118.31
2022-12-11T18:11:17.146Z,89114.28
2022-12-11T18:13:45.709Z,89123.69
2022-12-11T18:16:24.591Z,89118.56
2022-12-11T18:18:52.274Z,89110.22
2022-12-11T18:21:25.813Z,89107.91
2022-12-11T18:23:58.576Z,89094.69
2022-12-11T18:26:26.110Z,89099.75
2022-12-11T18:28:53.980Z,89099.00
2022-12-11T18:31:22.213Z,89099.69
2022-12-11T18:33:49.675Z,89100.69
2022-12-11T18:36:18.631Z,89103.28
2022-12-11T18:38:46.572Z,89109.28
2022-12-11T18:41:14.891Z,89108.75
2022-12-11T18:43:43.039Z,89109.84
2022-12-11T18:46:12.239Z,89106.78
2022-12-11T18:48:39.615Z,89106.56
2022-12-11T18:51:12.324Z,89101.31
2022-12-11T18:53:40.195Z,89112.31
2022-12-11T18:56:10.500Z,89114.00
2022-12-11T18:58:37.631Z,89121.44
2022-12-11T19:01:25.991Z,89108.50
2022-12-11T19:04:02.654Z,89110.97
2022-12-11T19:06:33.240Z,89111.28
2022-12-11T19:09:01.203Z,89110.16
2022-12-11T19:11:30.744Z,89099.88
2022-12-11T19:14:08.372Z,89097.63
2022-12-11T19:16:38.205Z,89095.97
2022-12-11T19:19:11.518Z,89098.03
2022-12-11T19:21:39.404Z,89100.41
2022-12-11T19:24:09.296Z,89096.06
2022-12-11T19:26:36.543Z,89103.75
2022-12-11T19:29:04.438Z,89100.81
2022-12-11T19:31:33.153Z,89096.69
2022-12-11T19:34:01.189Z,89097.25
2022-12-11T19:36:30.548Z,89094.13
2022-12-11T19:39:01.564Z,89086.69
2022-12-11T19:41:30.694Z,89088.00
2022-12-11T19:43:59.112Z,89088.16
2022-12-11T19:46:27.338Z,89087.00
2022-12-11T19:48:57.139Z,89086.22
2022-12-11T19:51:28.631Z,89084.31
2022-12-11T19:53:56.246Z,89082.63
2022-12-11T19:56:23.815Z,89073.47
2022-12-11T19:58:50.931Z,89069.38
2022-12-11T20:01:20.224Z,89079.47
2022-12-11T20:03:47.290Z,89072.28
2022-12-11T20:06:14.439Z,89069.16
2022-12-11T20:08:45.878Z,89067.69
2022-12-11T20:11:17.917Z,89061.66
2022-12-11T20:13:46.997Z,89067.44
2022-12-11T20:16:15.712Z,89068.66
2022-12-11T20:18:45.421Z,89061.66
2022-12-11T20:21:15.713Z,89057.56
2022-12-11T20:23:46.974Z,89060.03
2022-12-11T20:26:20.297Z,89058.34
2022-12-11T20:28:49.786Z,89057.16
2022-12-11T20:31:21.605Z,89055.97
2022-12-11T20:33:49.863Z,89053.78
2022-12-11T20:36:19.375Z,89051.59
2022-12-11T20:38:47.035Z,89049.91
2022-12-11T20:41:16.763Z,89045.34
2022-12-11T20:43:43.732Z,89042.44
2022-12-11T20:46:12.917Z,89046.53
2022-12-11T20:48:41.685Z,89047.75
2022-12-11T20:51:11.289Z,89047.50
2022-12-11T20:53:38.964Z,89034.47
2022-12-11T20:56:14.188Z,89036.91
2022-12-11T20:58:42.012Z,89023.72
2022-12-11T21:01:17.071Z,89029.50
2022-12-11T21:03:44.142Z,89033.22
2022-12-11T21:06:23.331Z,89025.44
2022-12-11T21:08:50.210Z,89022.03
2022-12-11T21:11:17.227Z,89028.50
2022-12-11T21:13:44.196Z,89028.50
2022-12-11T21:16:11.560Z,89018.09
2022-12-11T21:18:39.348Z,89026.53
2022-12-11T21:21:06.490Z,89020.34
2022-12-11T21:23:33.846Z,89024.97
2022-12-11T21:26:01.042Z,89025.19
2022-12-11T21:28:33.586Z,89027.34
2022-12-11T21:31:07.267Z,89015.53
2022-12-11T21:33:34.289Z,89023.94
2022-12-11T21:36:02.716Z,89020.13
2022-12-11T21:38:30.062Z,89009.53
2022-12-11T21:40:57.910Z,89015.66
2022-12-11T21:43:24.834Z,89018.31
2022-12-11T21:46:00.833Z,89007.06
2022-12-11T21:48:28.900Z,89023.81
2022-12-11T21:50:56.179Z,89018.66
2022-12-11T21:53:23.176Z,89013.31
2022-12-11T21:55:50.117Z,89013.31
2022-12-11T21:58:16.968Z,89008.78
2022-12-11T22:00:46.056Z,89011.19
2022-12-11T22:03:12.930Z,89010.06
2022-12-11T22:05:39.845Z,89016.56
2022-12-11T22:08:06.711Z,89011.25
2022-12-11T22:10:33.737Z,89013.91
2022-12-11T22:13:00.586Z,89007.22
2022-12-11T22:15:27.537Z,89009.84
2022-12-11T22:17:54.384Z,89010.56
2022-12-11T22:20:21.402Z,89000.31
2022-12-11T22:22:48.400Z,89014.16
2022-12-11T22:25:15.568Z,89001.34
2022-12-11T22:27:42.530Z,89002.75
2022-12-11T22:30:10.360Z,89012.00
2022-12-11T22:32:37.372Z,89018.00
2022-12-11T22:35:04.808Z,89007.81
2022-12-11T22:37:31.588Z,89005.59
2022-12-11T22:39:58.766Z,88995.41
2022-12-11T22:42:25.664Z,88993.47
2022-12-11T22:44:52.507Z,88998.75
2022-12-11T22:47:19.387Z,89003.34
2022-12-11T22:49:46.291Z,88994.41
2022-12-11T22:52:13.478Z,88993.66
2022-12-11T22:54:41.541Z,88997.75
2022-12-11T22:57:08.742Z,88998.66
2022-12-11T22:59:35.787Z,88995.91
2022-12-11T23:02:03.176Z,88999.31
2022-12-11T23:04:30.279Z,88994.53
2022-12-11T23:06:57.259Z,88995.16
2022-12-11T23:09:24.179Z,88999.47
2022-12-11T23:11:52.780Z,88999.78
2022-12-11T23:14:19.990Z,88993.69
2022-12-11T23:16:46.868Z,88999.22
2022-12-11T23:19:14.334Z,88993.91
2022-12-11T23:21:41.575Z,88991.47
2022-12-11T23:24:09.024Z,88988.09
2022-12-11T23:26:36.238Z,88981.53
2022-12-11T23:29:05.283Z,88986.38
2022-12-11T23:31:33.007Z,88994.81
2022-12-11T23:33:59.976Z,88992.53
2022-12-11T23:36:27.864Z,89000.50
2022-12-11T23:38:55.324Z,88998.66
2022-12-11T23:41:22.911Z,88997.47
2022-12-11T23:43:49.788Z,88998.97
2022-12-11T23:46:20.488Z,88988.84
2022-12-11T23:48:47.432Z,88989.84
2022-12-11T23:51:17.392Z,88990.78
2022-12-11T23:53:44.528Z,88998.25
2022-12-11T23:56:15.653Z,89006.19
2022-12-11T23:58:42.614Z,89004.75
